sensor_id;sensor_type;location;lat;lon;timestamp;pressure;altitude;pressure_sealevel;temperature;humidity
10462;BME280;5278;42.656;23.374;2022-07-01T00:00:27;94627.47;;;24.59;56.95
10462;BME280;5278;42.656;23.374;2022-07-01T00:02:54;94616.88;;;24.74;56.88
10462;BME280;5278;42.656;23.374;2022-07-01T00:05:21;94624.88;;;24.84;56.63
10462;BME280;5278;42.656;23.374;2022-07-01T00:07:47;94618.81;;;24.94;54.96
10462;BME280;5278;42.656;23.374;2022-07-01T00:10:14;94623.84;;;25.06;55.88
10462;BME280;5278;42.656;23.374;2022-07-01T00:12:43;94621.50;;;25.19;54.77
10462;BME280;5278;42.656;23.374;2022-07-01T00:15:10;94631.34;;;25.19;54.03
10462;BME280;5278;42.656;23.374;2022-07-01T00:17:37;94636.09;;;25.12;54.43
10462;BME280;5278;42.656;23.374;2022-07-01T00:20:04;94596.16;;;24.86;55.47
10462;BME280;5278;42.656;23.374;2022-07-01T00:22:31;94636.66;;;25.09;56.11
10462;BME280;5278;42.656;23.374;2022-07-01T00:24:58;94635.06;;;25.18;55.71
10462;BME280;5278;42.656;23.374;2022-07-01T00:27:25;94648.09;;;25.24;55.33
10462;BME280;5278;42.656;23.374;2022-07-01T00:29:53;94642.00;;;25.29;55.13
10462;BME280;5278;42.656;23.374;2022-07-01T00:32:20;94642.50;;;25.21;54.83
10462;BME280;5278;42.656;23.374;2022-07-01T00:34:47;94641.72;;;25.10;55.34
10462;BME280;5278;42.656;23.374;2022-07-01T00:37:13;94635.59;;;25.15;55.54
10462;BME280;5278;42.656;23.374;2022-07-01T00:39:40;94640.38;;;25.18;54.86
10462;BME280;5278;42.656;23.374;2022-07-01T00:42:07;94615.63;;;25.12;55.15
10462;BME280;5278;42.656;23.374;2022-07-01T00:44:34;94634.53;;;25.26;55.36
10462;BME280;5278;42.656;23.374;2022-07-01T00:47:04;94635.84;;;25.18;55.23
10462;BME280;5278;42.656;23.374;2022-07-01T00:49:35;94645.69;;;25.23;55.17
10462;BME280;5278;42.656;23.374;2022-07-01T00:52:02;94648.09;;;25.09;55.68
10462;BME280;5278;42.656;23.374;2022-07-01T00:54:30;94647.53;;;25.02;55.68
10462;BME280;5278;42.656;23.374;2022-07-01T00:56:57;94648.28;;;24.88;55.62
10462;BME280;5278;42.656;23.374;2022-07-01T00:59:25;94645.09;;;24.85;56.74
10462;BME280;5278;42.656;23.374;2022-07-01T01:01:52;94634.22;;;24.92;56.71
10462;BME280;5278;42.656;23.374;2022-07-01T01:04:20;94648.06;;;24.94;56.19
10462;BME280;5278;42.656;23.374;2022-07-01T01:06:47;94656.28;;;24.93;55.89
10462;BME280;5278;42.656;23.374;2022-07-01T01:09:13;94645.13;;;24.91;56.65
10462;BME280;5278;42.656;23.374;2022-07-01T01:11:40;94648.03;;;24.89;56.95
10462;BME280;5278;42.656;23.374;2022-07-01T01:14:07;94644.34;;;25.00;56.54
10462;BME280;5278;42.656;23.374;2022-07-01T01:16:34;94646.47;;;25.08;55.55
10462;BME280;5278;42.656;23.374;2022-07-01T01:19:04;94639.06;;;25.20;55.93
10462;BME280;5278;42.656;23.374;2022-07-01T01:21:32;94636.66;;;25.34;55.29
10462;BME280;5278;42.656;23.374;2022-07-01T01:23:59;94636.94;;;25.43;53.69
10462;BME280;5278;42.656;23.374;2022-07-01T01:26:27;94639.84;;;25.46;54.92
10462;BME280;5278;42.656;23.374;2022-07-01T01:28:55;94634.00;;;25.54;54.24
10462;BME280;5278;42.656;23.374;2022-07-01T01:31:27;94636.66;;;25.39;54.83
10462;BME280;5278;42.656;23.374;2022-07-01T01:33:55;94637.97;;;25.47;54.86
10462;BME280;5278;42.656;23.374;2022-07-01T01:36:22;94636.13;;;25.52;54.53
10462;BME280;5278;42.656;23.374;2022-07-01T01:38:50;94642.81;;;25.55;54.39
10462;BME280;5278;42.656;23.374;2022-07-01T01:41:17;94652.91;;;25.38;55.00
10462;BME280;5278;42.656;23.374;2022-07-01T01:43:44;94655.28;;;25.39;54.89
10462;BME280;5278;42.656;23.374;2022-07-01T01:46:12;94642.53;;;25.56;54.85
10462;BME280;5278;42.656;23.374;2022-07-01T01:48:39;94644.94;;;25.78;54.10
10462;BME280;5278;42.656;23.374;2022-07-01T01:51:06;94640.63;;;25.97;53.54
10462;BME280;5278;42.656;23.374;2022-07-01T01:53:32;94643.53;;;26.01;53.31
10462;BME280;5278;42.656;23.374;2022-07-01T01:56:01;94636.34;;;26.06;52.86
10462;BME280;5278;42.656;23.374;2022-07-01T01:58:28;94646.75;;;25.93;53.63
10462;BME280;5278;42.656;23.374;2022-07-01T02:00:55;94650.47;;;25.97;53.48
10462;BME280;5278;42.656;23.374;2022-07-01T02:03:22;94643.84;;;25.94;53.44
10462;BME280;5278;42.656;23.374;2022-07-01T02:05:49;94641.47;;;25.73;54.23
10462;BME280;5278;42.656;23.374;2022-07-01T02:08:16;94654.22;;;25.81;53.67
10462;BME280;5278;42.656;23.374;2022-07-01T02:10:42;94647.59;;;25.73;53.57
10462;BME280;5278;42.656;23.374;2022-07-01T02:13:11;94657.69;;;25.71;54.37
10462;BME280;5278;42.656;23.374;2022-07-01T02:15:37;94655.81;;;25.87;54.45
10462;BME280;5278;42.656;23.374;2022-07-01T02:18:05;94661.69;;;25.89;55.16
10462;BME280;5278;42.656;23.374;2022-07-01T02:20:32;94667.28;;;25.92;54.74
10462;BME280;5278;42.656;23.374;2022-07-01T02:22:59;94665.41;;;25.83;53.19
10462;BME280;5278;42.656;23.374;2022-07-01T02:25:26;94666.78;;;25.65;53.94
10462;BME280;5278;42.656;23.374;2022-07-01T02:27:52;94672.63;;;25.57;54.97
10462;BME280;5278;42.656;23.374;2022-07-01T02:30:21;94675.28;;;25.62;54.16
10462;BME280;5278;42.656;23.374;2022-07-01T02:32:48;94671.31;;;25.64;53.58
10462;BME280;5278;42.656;23.374;2022-07-01T02:35:14;94671.81;;;25.66;53.61
10462;BME280;5278;42.656;23.374;2022-07-01T02:37:41;94678.75;;;25.67;53.98
10462;BME280;5278;42.656;23.374;2022-07-01T02:40:09;94673.16;;;25.79;53.58
10462;BME280;5278;42.656;23.374;2022-07-01T02:42:38;94690.44;;;25.77;53.42
10462;BME280;5278;42.656;23.374;2022-07-01T02:45:06;94664.13;;;25.60;53.44
10462;BME280;5278;42.656;23.374;2022-07-01T02:47:35;94683.81;;;25.89;52.92
10462;BME280;5278;42.656;23.374;2022-07-01T02:50:03;94686.97;;;25.96;52.57
10462;BME280;5278;42.656;23.374;2022-07-01T02:52:30;94690.97;;;25.99;52.94
10462;BME280;5278;42.656;23.374;2022-07-01T02:55:00;94691.22;;;26.02;53.59
10462;BME280;5278;42.656;23.374;2022-07-01T02:57:27;94694.44;;;26.09;53.01
10462;BME280;5278;42.656;23.374;2022-07-01T02:59:53;94696.56;;;26.07;53.45
10462;BME280;5278;42.656;23.374;2022-07-01T03:02:20;94690.19;;;25.98;53.43
10462;BME280;5278;42.656;23.374;2022-07-01T03:04:50;94700.28;;;25.96;54.09
10462;BME280;5278;42.656;23.374;2022-07-01T03:07:19;94706.41;;;25.97;54.20
10462;BME280;5278;42.656;23.374;2022-07-01T03:09:46;94716.03;;;25.88;54.55
10462;BME280;5278;42.656;23.374;2022-07-01T03:12:13;94707.47;;;25.96;54.34
10462;BME280;5278;42.656;23.374;2022-07-01T03:15:01;94720.81;;;25.91;55.07
10462;BME280;5278;42.656;23.374;2022-07-01T03:17:31;94729.59;;;25.96;54.62
10462;BME280;5278;42.656;23.374;2022-07-01T03:20:00;94718.94;;;26.01;54.87
10462;BME280;5278;42.656;23.374;2022-07-01T03:22:28;94720.78;;;26.16;54.46
10462;BME280;5278;42.656;23.374;2022-07-01T03:24:56;94723.44;;;26.31;53.94
10462;BME280;5278;42.656;23.374;2022-07-01T03:27:24;94712.25;;;26.44;53.47
10462;BME280;5278;42.656;23.374;2022-07-01T03:29:51;94713.28;;;26.53;53.36
10462;BME280;5278;42.656;23.374;2022-07-01T03:32:18;94718.03;;;26.62;52.96
10462;BME280;5278;42.656;23.374;2022-07-01T03:34:46;94714.84;;;26.65;52.99
10462;BME280;5278;42.656;23.374;2022-07-01T03:37:15;94718.28;;;26.65;53.06
10462;BME280;5278;42.656;23.374;2022-07-01T03:39:43;94719.13;;;26.50;53.64
10462;BME280;5278;42.656;23.374;2022-07-01T03:42:10;94721.28;;;26.53;53.47
10462;BME280;5278;42.656;23.374;2022-07-01T03:44:38;94715.38;;;26.56;53.57
10462;BME280;5278;42.656;23.374;2022-07-01T03:47:05;94712.19;;;26.60;53.79
10462;BME280;5278;42.656;23.374;2022-07-01T03:49:32;94716.94;;;26.68;53.17
10462;BME280;5278;42.656;23.374;2022-07-01T03:51:59;94714.81;;;26.70;53.06
10462;BME280;5278;42.656;23.374;2022-07-01T03:54:28;94720.94;;;26.65;52.87
10462;BME280;5278;42.656;23.374;2022-07-01T03:56:58;94713.25;;;26.64;52.77
10462;BME280;5278;42.656;23.374;2022-07-01T03:59:25;94717.72;;;26.73;52.77
10462;BME280;5278;42.656;23.374;2022-07-01T04:01:53;94728.63;;;26.82;52.80
10462;BME280;5278;42.656;23.374;2022-07-01T04:04:20;94716.09;;;26.92;52.44
10462;BME280;5278;42.656;23.374;2022-07-01T04:06:47;94716.28;;;27.06;51.77
10462;BME280;5278;42.656;23.374;2022-07-01T04:09:16;94725.22;;;27.30;51.07
10462;BME280;5278;42.656;23.374;2022-07-01T04:11:45;94725.66;;;27.53;50.74
10462;BME280;5278;42.656;23.374;2022-07-01T04:14:14;94712.19;;;27.68;49.88
10462;BME280;5278;42.656;23.374;2022-07-01T04:16:41;94733.31;;;27.98;49.61
10462;BME280;5278;42.656;23.374;2022-07-01T04:19:08;94731.78;;;28.21;49.25
10462;BME280;5278;42.656;23.374;2022-07-01T04:21:36;94730.75;;;28.46;48.67
10462;BME280;5278;42.656;23.374;2022-07-01T04:24:21;94726.84;;;28.62;47.93
10462;BME280;5278;42.656;23.374;2022-07-01T04:26:51;94727.13;;;28.84;46.86
10462;BME280;5278;42.656;23.374;2022-07-01T04:29:18;94726.88;;;29.04;47.06
10462;BME280;5278;42.656;23.374;2022-07-01T04:31:45;94733.28;;;29.27;46.10
10462;BME280;5278;42.656;23.374;2022-07-01T04:34:13;94743.53;;;29.44;46.10
10462;BME280;5278;42.656;23.374;2022-07-01T04:36:40;94735.69;;;29.66;45.31
10462;BME280;5278;42.656;23.374;2022-07-01T04:39:06;94726.00;;;29.89;45.10
10462;BME280;5278;42.656;23.374;2022-07-01T04:41:33;94741.38;;;30.16;44.54
10462;BME280;5278;42.656;23.374;2022-07-01T04:44:19;94740.22;;;30.35;44.01
10462;BME280;5278;42.656;23.374;2022-07-01T04:46:46;94733.53;;;30.52;43.38
10462;BME280;5278;42.656;23.374;2022-07-01T04:49:13;94738.09;;;30.65;43.56
10462;BME280;5278;42.656;23.374;2022-07-01T04:51:40;94736.34;;;30.88;42.29
10462;BME280;5278;42.656;23.374;2022-07-01T04:54:08;94737.75;;;31.12;40.96
10462;BME280;5278;42.656;23.374;2022-07-01T04:56:36;94735.91;;;31.35;40.80
10462;BME280;5278;42.656;23.374;2022-07-01T04:59:03;94727.63;;;31.45;40.33
10462;BME280;5278;42.656;23.374;2022-07-01T05:01:32;94727.06;;;31.71;39.73
10462;BME280;5278;42.656;23.374;2022-07-01T05:03:59;94729.59;;;31.89;38.65
10462;BME280;5278;42.656;23.374;2022-07-01T05:06:26;94723.25;;;32.08;38.38
10462;BME280;5278;42.656;23.374;2022-07-01T05:08:54;94732.84;;;32.22;38.43
10462;BME280;5278;42.656;23.374;2022-07-01T05:11:21;94728.44;;;32.26;38.31
10462;BME280;5278;42.656;23.374;2022-07-01T05:13:48;94730.88;;;32.36;38.35
10462;BME280;5278;42.656;23.374;2022-07-01T05:16:14;94730.94;;;32.54;38.03
10462;BME280;5278;42.656;23.374;2022-07-01T05:18:43;94723.94;;;32.75;37.33
10462;BME280;5278;42.656;23.374;2022-07-01T05:21:27;94730.44;;;32.74;37.36
10462;BME280;5278;42.656;23.374;2022-07-01T05:24:11;94738.22;;;32.84;37.25
10462;BME280;5278;42.656;23.374;2022-07-01T05:26:39;94739.41;;;33.00;37.10
10462;BME280;5278;42.656;23.374;2022-07-01T05:29:06;94736.31;;;33.24;36.60
10462;BME280;5278;42.656;23.374;2022-07-01T05:31:33;94732.88;;;33.49;36.53
10462;BME280;5278;42.656;23.374;2022-07-01T05:34:02;94731.66;;;33.81;35.93
10462;BME280;5278;42.656;23.374;2022-07-01T05:36:29;94731.63;;;34.15;35.92
10462;BME280;5278;42.656;23.374;2022-07-01T05:38:56;94724.00;;;34.26;35.46
10462;BME280;5278;42.656;23.374;2022-07-01T05:41:23;94731.28;;;34.34;34.75
10462;BME280;5278;42.656;23.374;2022-07-01T05:43:50;94730.91;;;34.62;34.74
10462;BME280;5278;42.656;23.374;2022-07-01T05:46:17;94726.34;;;34.91;34.03
10462;BME280;5278;42.656;23.374;2022-07-01T05:48:43;94728.16;;;35.08;34.09
10462;BME280;5278;42.656;23.374;2022-07-01T05:51:12;94736.81;;;35.31;33.20
10462;BME280;5278;42.656;23.374;2022-07-01T05:53:39;94724.28;;;35.47;32.69
10462;BME280;5278;42.656;23.374;2022-07-01T05:56:06;94732.59;;;35.63;32.92
10462;BME280;5278;42.656;23.374;2022-07-01T05:58:33;94729.53;;;35.94;32.08
10462;BME280;5278;42.656;23.374;2022-07-01T06:01:00;94720.72;;;36.17;31.35
10462;BME280;5278;42.656;23.374;2022-07-01T06:03:27;94733.34;;;36.46;31.62
10462;BME280;5278;42.656;23.374;2022-07-01T06:05:54;94723.91;;;36.77;31.23
10462;BME280;5278;42.656;23.374;2022-07-01T06:08:23;94730.25;;;36.93;30.49
10462;BME280;5278;42.656;23.374;2022-07-01T06:10:50;94737.72;;;36.96;30.70
10462;BME280;5278;42.656;23.374;2022-07-01T06:13:17;94735.94;;;37.00;29.99
10462;BME280;5278;42.656;23.374;2022-07-01T06:15:44;94737.06;;;37.35;29.54
10462;BME280;5278;42.656;23.374;2022-07-01T06:18:11;94735.69;;;37.54;29.67
10462;BME280;5278;42.656;23.374;2022-07-01T06:20:38;94733.78;;;37.54;29.57
10462;BME280;5278;42.656;23.374;2022-07-01T06:23:05;94738.41;;;37.54;29.85
10462;BME280;5278;42.656;23.374;2022-07-01T06:25:33;94738.75;;;37.64;29.05
10462;BME280;5278;42.656;23.374;2022-07-01T06:28:00;94744.09;;;37.88;29.04
10462;BME280;5278;42.656;23.374;2022-07-01T06:30:27;94748.78;;;38.16;28.99
10462;BME280;5278;42.656;23.374;2022-07-01T06:32:54;94745.91;;;38.24;28.77
10462;BME280;5278;42.656;23.374;2022-07-01T06:35:21;94743.53;;;38.23;28.78
10462;BME280;5278;42.656;23.374;2022-07-01T06:37:48;94740.84;;;38.39;28.65
10462;BME280;5278;42.656;23.374;2022-07-01T06:40:15;94736.88;;;38.48;28.38
10462;BME280;5278;42.656;23.374;2022-07-01T06:42:44;94746.91;;;38.60;28.53
10462;BME280;5278;42.656;23.374;2022-07-01T06:45:10;94743.41;;;38.75;28.08
10462;BME280;5278;42.656;23.374;2022-07-01T06:47:37;94737.06;;;38.71;28.24
10462;BME280;5278;42.656;23.374;2022-07-01T06:50:05;94727.34;;;38.70;28.23
10462;BME280;5278;42.656;23.374;2022-07-01T06:52:32;94737.69;;;38.96;27.81
10462;BME280;5278;42.656;23.374;2022-07-01T06:55:00;94736.22;;;39.14;27.46
10462;BME280;5278;42.656;23.374;2022-07-01T06:57:27;94742.59;;;39.22;26.93
10462;BME280;5278;42.656;23.374;2022-07-01T06:59:56;94737.50;;;39.36;27.12
10462;BME280;5278;42.656;23.374;2022-07-01T07:02:22;94734.41;;;39.53;27.11
10462;BME280;5278;42.656;23.374;2022-07-01T07:04:49;94668.88;;;39.27;26.51
10462;BME280;5278;42.656;23.374;2022-07-01T07:07:19;94741.78;;;39.52;26.62
10462;BME280;5278;42.656;23.374;2022-07-01T07:09:46;94733.00;;;39.59;26.83
10462;BME280;5278;42.656;23.374;2022-07-01T07:12:13;94733.28;;;39.73;26.70
10462;BME280;5278;42.656;23.374;2022-07-01T07:14:40;94741.94;;;39.94;26.23
10462;BME280;5278;42.656;23.374;2022-07-01T07:17:08;94737.94;;;40.08;25.98
10462;BME280;5278;42.656;23.374;2022-07-01T07:19:35;94737.66;;;40.32;25.78
10462;BME280;5278;42.656;23.374;2022-07-01T07:22:02;94738.09;;;40.57;25.06
10462;BME280;5278;42.656;23.374;2022-07-01T07:24:28;94741.72;;;40.83;25.57
10462;BME280;5278;42.656;23.374;2022-07-01T07:26:55;94744.22;;;40.92;25.00
10462;BME280;5278;42.656;23.374;2022-07-01T07:29:22;94743.44;;;41.14;24.98
10462;BME280;5278;42.656;23.374;2022-07-01T07:31:49;94743.81;;;41.13;24.72
10462;BME280;5278;42.656;23.374;2022-07-01T07:34:17;94738.91;;;41.25;24.31
10462;BME280;5278;42.656;23.374;2022-07-01T07:36:44;94740.50;;;41.26;24.67
10462;BME280;5278;42.656;23.374;2022-07-01T07:39:11;94738.75;;;41.41;24.26
10462;BME280;5278;42.656;23.374;2022-07-01T07:41:38;94735.03;;;41.49;24.14
10462;BME280;5278;42.656;23.374;2022-07-01T07:44:05;94721.28;;;41.72;24.46
10462;BME280;5278;42.656;23.374;2022-07-01T07:46:33;94723.06;;;41.87;23.60
10462;BME280;5278;42.656;23.374;2022-07-01T07:49:00;94729.97;;;42.07;23.81
10462;BME280;5278;42.656;23.374;2022-07-01T07:51:28;94728.50;;;42.17;23.21
10462;BME280;5278;42.656;23.374;2022-07-01T07:53:55;94734.78;;;42.21;23.13
10462;BME280;5278;42.656;23.374;2022-07-01T07:56:22;94733.97;;;42.17;23.42
10462;BME280;5278;42.656;23.374;2022-07-01T07:58:49;94729.28;;;42.51;22.97
10462;BME280;5278;42.656;23.374;2022-07-01T08:01:16;94726.00;;;42.72;22.84
10462;BME280;5278;42.656;23.374;2022-07-01T08:03:43;94724.63;;;42.92;22.52
10462;BME280;5278;42.656;23.374;2022-07-01T08:06:10;94731.44;;;43.09;22.18
10462;BME280;5278;42.656;23.374;2022-07-01T08:08:39;94721.38;;;43.23;21.99
10462;BME280;5278;42.656;23.374;2022-07-01T08:11:06;94719.47;;;43.31;21.79
10462;BME280;5278;42.656;23.374;2022-07-01T08:13:33;94716.81;;;43.42;22.26
10462;BME280;5278;42.656;23.374;2022-07-01T08:16:00;94703.88;;;43.42;21.65
10462;BME280;5278;42.656;23.374;2022-07-01T08:18:28;94710.75;;;43.73;21.92
10462;BME280;5278;42.656;23.374;2022-07-01T08:20:54;94712.44;;;43.92;21.41
10462;BME280;5278;42.656;23.374;2022-07-01T08:23:22;94708.59;;;44.17;21.23
10462;BME280;5278;42.656;23.374;2022-07-01T08:25:51;94687.13;;;44.41;20.99
10462;BME280;5278;42.656;23.374;2022-07-01T08:28:18;94682.88;;;44.57;20.76
10462;BME280;5278;42.656;23.374;2022-07-01T08:30:45;94677.00;;;44.70;20.84
10462;BME280;5278;42.656;23.374;2022-07-01T08:33:12;94702.94;;;45.08;20.66
10462;BME280;5278;42.656;23.374;2022-07-01T08:35:40;94689.97;;;44.97;20.95
10462;BME280;5278;42.656;23.374;2022-07-01T08:38:07;94698.22;;;45.05;20.66
10462;BME280;5278;42.656;23.374;2022-07-01T08:40:34;94704.09;;;44.92;20.49
10462;BME280;5278;42.656;23.374;2022-07-01T08:43:05;94711.94;;;45.05;19.99
10462;BME280;5278;42.656;23.374;2022-07-01T08:45:33;94705.28;;;45.16;19.78
10462;BME280;5278;42.656;23.374;2022-07-01T08:48:00;94697.03;;;45.20;20.27
10462;BME280;5278;42.656;23.374;2022-07-01T08:50:28;94701.34;;;45.28;20.60
10462;BME280;5278;42.656;23.374;2022-07-01T08:52:56;94700.88;;;45.68;20.18
10462;BME280;5278;42.656;23.374;2022-07-01T08:55:23;94698.38;;;46.09;19.52
10462;BME280;5278;42.656;23.374;2022-07-01T08:57:50;94699.16;;;46.10;19.36
10462;BME280;5278;42.656;23.374;2022-07-01T09:00:19;94706.06;;;46.50;18.34
10462;BME280;5278;42.656;23.374;2022-07-01T09:02:50;94707.44;;;46.79;18.01
10462;BME280;5278;42.656;23.374;2022-07-01T09:05:17;94700.09;;;47.17;17.87
10462;BME280;5278;42.656;23.374;2022-07-01T09:07:44;94704.41;;;47.63;17.35
10462;BME280;5278;42.656;23.374;2022-07-01T09:10:17;94698.75;;;47.77;16.94
10462;BME280;5278;42.656;23.374;2022-07-01T09:12:45;94706.31;;;48.03;16.29
10462;BME280;5278;42.656;23.374;2022-07-01T09:15:24;94697.69;;;48.31;16.30
10462;BME280;5278;42.656;23.374;2022-07-01T09:17:52;94693.63;;;48.70;15.86
10462;BME280;5278;42.656;23.374;2022-07-01T09:20:24;94699.06;;;49.00;15.91
10462;BME280;5278;42.656;23.374;2022-07-01T09:23:02;94695.53;;;49.23;15.11
10462;BME280;5278;42.656;23.374;2022-07-01T09:25:32;94706.25;;;48.71;15.11
10462;BME280;5278;42.656;23.374;2022-07-01T09:28:11;94690.47;;;48.68;15.49
10462;BME280;5278;42.656;23.374;2022-07-01T09:30:43;94694.94;;;48.58;15.12
10462;BME280;5278;42.656;23.374;2022-07-01T09:33:12;94692.44;;;48.67;15.15
10462;BME280;5278;42.656;23.374;2022-07-01T09:35:40;94696.03;;;49.18;14.15
10462;BME280;5278;42.656;23.374;2022-07-01T09:38:10;94690.88;;;48.93;13.51
10462;BME280;5278;42.656;23.374;2022-07-01T09:40:52;94687.97;;;49.27;13.13
10462;BME280;5278;42.656;23.374;2022-07-01T09:43:21;94692.56;;;49.57;13.50
10462;BME280;5278;42.656;23.374;2022-07-01T09:45:56;94688.59;;;49.58;12.74
10462;BME280;5278;42.656;23.374;2022-07-01T09:48:25;94682.75;;;49.56;12.53
10462;BME280;5278;42.656;23.374;2022-07-01T09:50:52;94684.06;;;49.25;13.32
10462;BME280;5278;42.656;23.374;2022-07-01T09:53:20;94677.13;;;49.17;13.71
10462;BME280;5278;42.656;23.374;2022-07-01T09:55:47;94674.00;;;49.57;13.08
10462;BME280;5278;42.656;23.374;2022-07-01T09:58:14;94676.16;;;49.89;12.75
10462;BME280;5278;42.656;23.374;2022-07-01T10:00:41;94671.00;;;49.91;12.93
10462;BME280;5278;42.656;23.374;2022-07-01T10:03:11;94668.44;;;50.01;12.80
10462;BME280;5278;42.656;23.374;2022-07-01T10:05:42;94666.63;;;49.71;12.69
10462;BME280;5278;42.656;23.374;2022-07-01T10:08:32;94660.44;;;49.63;11.97
10462;BME280;5278;42.656;23.374;2022-07-01T10:11:25;94670.88;;;49.55;12.40
10462;BME280;5278;42.656;23.374;2022-07-01T10:14:02;94647.47;;;49.40;11.90
10462;BME280;5278;42.656;23.374;2022-07-01T10:16:30;94666.28;;;49.26;11.33
10462;BME280;5278;42.656;23.374;2022-07-01T10:19:05;94667.28;;;48.89;11.74
10462;BME280;5278;42.656;23.374;2022-07-01T10:21:32;94670.16;;;47.94;11.05
10462;BME280;5278;42.656;23.374;2022-07-01T10:24:11;94680.69;;;47.72;11.43
10462;BME280;5278;42.656;23.374;2022-07-01T10:26:38;94660.53;;;47.41;11.55
10462;BME280;5278;42.656;23.374;2022-07-01T10:31:48;94652.06;;;48.23;11.76
10462;BME280;5278;42.656;23.374;2022-07-01T10:34:18;94651.06;;;48.91;11.76
10462;BME280;5278;42.656;23.374;2022-07-01T10:37:00;94647.31;;;49.04;10.76
10462;BME280;5278;42.656;23.374;2022-07-01T10:39:28;94640.69;;;48.75;11.35
10462;BME280;5278;42.656;23.374;2022-07-01T10:42:00;94646.75;;;48.90;11.14
10462;BME280;5278;42.656;23.374;2022-07-01T10:44:29;94634.38;;;48.48;11.26
10462;BME280;5278;42.656;23.374;2022-07-01T10:47:05;94634.75;;;48.50;11.83
10462;BME280;5278;42.656;23.374;2022-07-01T10:49:53;94606.59;;;48.31;11.87
10462;BME280;5278;42.656;23.374;2022-07-01T10:52:20;94623.56;;;48.30;12.04
10462;BME280;5278;42.656;23.374;2022-07-01T10:54:50;94623.09;;;48.08;12.59
10462;BME280;5278;42.656;23.374;2022-07-01T10:57:30;94622.66;;;48.40;12.07
10462;BME280;5278;42.656;23.374;2022-07-01T11:00:25;94623.06;;;48.39;12.17
10462;BME280;5278;42.656;23.374;2022-07-01T11:03:12;94625.50;;;48.60;12.16
10462;BME280;5278;42.656;23.374;2022-07-01T11:05:41;94629.19;;;47.62;12.64
10462;BME280;5278;42.656;23.374;2022-07-01T11:08:09;94641.53;;;46.61;13.20
10462;BME280;5278;42.656;23.374;2022-07-01T11:10:37;94624.72;;;45.62;13.85
10462;BME280;5278;42.656;23.374;2022-07-01T11:13:04;94615.81;;;45.12;14.18
10462;BME280;5278;42.656;23.374;2022-07-01T11:15:32;94622.81;;;44.21;15.23
10462;BME280;5278;42.656;23.374;2022-07-01T11:18:00;94625.34;;;43.53;15.37
10462;BME280;5278;42.656;23.374;2022-07-01T11:20:30;94625.06;;;42.63;16.44
10462;BME280;5278;42.656;23.374;2022-07-01T11:22:59;94621.34;;;42.38;16.64
10462;BME280;5278;42.656;23.374;2022-07-01T11:25:26;94611.31;;;42.16;17.22
10462;BME280;5278;42.656;23.374;2022-07-01T11:27:53;94624.19;;;42.15;16.88
10462;BME280;5278;42.656;23.374;2022-07-01T11:30:22;94617.44;;;41.68;17.33
10462;BME280;5278;42.656;23.374;2022-07-01T11:32:50;94590.13;;;40.82;17.53
10462;BME280;5278;42.656;23.374;2022-07-01T11:35:21;94613.69;;;40.68;18.05
10462;BME280;5278;42.656;23.374;2022-07-01T11:38:12;94613.50;;;40.34;17.63
10462;BME280;5278;42.656;23.374;2022-07-01T11:40:58;94610.63;;;40.27;18.01
10462;BME280;5278;42.656;23.374;2022-07-01T11:43:27;94599.94;;;39.96;18.23
10462;BME280;5278;42.656;23.374;2022-07-01T11:45:58;94604.25;;;39.78;18.14
10462;BME280;5278;42.656;23.374;2022-07-01T11:48:35;94593.78;;;39.60;18.11
10462;BME280;5278;42.656;23.374;2022-07-01T11:51:07;94600.53;;;39.47;17.78
10462;BME280;5278;42.656;23.374;2022-07-01T11:53:36;94586.34;;;39.57;17.26
10462;BME280;5278;42.656;23.374;2022-07-01T11:56:03;94592.72;;;39.65;18.21
10462;BME280;5278;42.656;23.374;2022-07-01T11:58:49;94586.84;;;39.82;18.34
10462;BME280;5278;42.656;23.374;2022-07-01T12:01:24;94589.13;;;39.99;17.70
10462;BME280;5278;42.656;23.374;2022-07-01T12:03:52;94591.28;;;40.13;17.89
10462;BME280;5278;42.656;23.374;2022-07-01T12:06:20;94567.28;;;39.57;18.70
10462;BME280;5278;42.656;23.374;2022-07-01T12:08:52;94575.81;;;39.56;19.04
10462;BME280;5278;42.656;23.374;2022-07-01T12:11:24;94586.91;;;39.47;18.21
10462;BME280;5278;42.656;23.374;2022-07-01T12:13:52;94573.94;;;39.41;18.26
10462;BME280;5278;42.656;23.374;2022-07-01T12:16:19;94571.09;;;39.34;17.99
10462;BME280;5278;42.656;23.374;2022-07-01T12:18:53;94559.13;;;39.38;18.36
10462;BME280;5278;42.656;23.374;2022-07-01T12:21:22;94568.88;;;39.58;18.59
10462;BME280;5278;42.656;23.374;2022-07-01T12:24:09;94564.22;;;39.40;17.97
10462;BME280;5278;42.656;23.374;2022-07-01T12:27:01;94575.00;;;39.17;18.47
10462;BME280;5278;42.656;23.374;2022-07-01T12:29:30;94575.78;;;38.83;18.86
10462;BME280;5278;42.656;23.374;2022-07-01T12:31:59;94566.81;;;38.98;18.71
10462;BME280;5278;42.656;23.374;2022-07-01T12:34:40;94562.84;;;39.30;18.27
10462;BME280;5278;42.656;23.374;2022-07-01T12:37:10;94573.63;;;39.27;18.99
10462;BME280;5278;42.656;23.374;2022-07-01T12:39:45;94571.25;;;39.06;19.46
10462;BME280;5278;42.656;23.374;2022-07-01T12:42:23;94561.88;;;38.68;19.32
10462;BME280;5278;42.656;23.374;2022-07-01T12:44:53;94558.22;;;38.29;20.53
10462;BME280;5278;42.656;23.374;2022-07-01T12:47:24;94563.66;;;38.29;19.89
10462;BME280;5278;42.656;23.374;2022-07-01T12:50:10;94570.75;;;37.75;23.05
10462;BME280;5278;42.656;23.374;2022-07-01T12:52:39;94552.69;;;37.39;25.18
10462;BME280;5278;42.656;23.374;2022-07-01T12:55:16;94582.09;;;36.85;26.61
10462;BME280;5278;42.656;23.374;2022-07-01T12:57:45;94572.84;;;36.49;27.70
10462;BME280;5278;42.656;23.374;2022-07-01T13:00:13;94570.56;;;35.70;28.99
10462;BME280;5278;42.656;23.374;2022-07-01T13:02:40;94574.69;;;35.34;28.97
10462;BME280;5278;42.656;23.374;2022-07-01T13:05:07;94583.50;;;35.02;29.01
10462;BME280;5278;42.656;23.374;2022-07-01T13:07:34;94572.53;;;34.86;28.79
10462;BME280;5278;42.656;23.374;2022-07-01T13:10:01;94569.66;;;34.83;28.17
10462;BME280;5278;42.656;23.374;2022-07-01T13:12:29;94558.72;;;34.79;29.22